Time;durP1;ratioP1;P1;durP2;ratioP2;P2;SDS_P1;SDS_P2;PMS_P1;PMS_P2;Temp;Humidity;BMP_temperature;BMP_pressure;BME280_temperature;BME280_humidity;BME280_pressure;Samples;Min_cycle;Max_cycle;Signal;HPM_P1;HPM_P2
2022/07/30 00:02:06;;;;;;;3.93;2.40;;;16.70;99.90;;;;;;5005148;28;20794;-90
2022/07/30 00:04:33;;;;;;;3.57;2.30;;;16.80;99.90;;;;;;5006557;28;20726;-91
2022/07/30 00:07:00;;;;;;;6.13;2.50;;;16.80;99.90;;;;;;5025135;28;20272;-91
2022/07/30 00:09:28;;;;;;;7.63;2.40;;;16.80;99.90;;;;;;5007189;28;20504;-91
2022/07/30 00:11:54;;;;;;;5.30;2.37;;;16.80;99.90;;;;;;5004210;28;20244;-90
2022/07/30 00:14:21;;;;;;;4.67;2.23;;;16.90;99.90;;;;;;5011495;28;20254;-90
2022/07/30 00:16:48;;;;;;;4.13;2.50;;;16.80;99.90;;;;;;5017546;28;20229;-90
2022/07/30 00:19:15;;;;;;;4.67;2.30;;;16.90;99.90;;;;;;5000755;28;20225;-90
2022/07/30 00:21:41;;;;;;;6.07;2.13;;;16.80;99.90;;;;;;5002106;28;20328;-91
2022/07/30 00:24:08;;;;;;;5.10;2.20;;;16.80;99.90;;;;;;5015876;28;20308;-90
2022/07/30 00:26:37;;;;;;;4.20;2.03;;;16.80;99.90;;;;;;5001748;28;20285;-90
2022/07/30 00:29:04;;;;;;;4.33;2.40;;;16.80;99.90;;;;;;5019754;28;20306;-91
2022/07/30 00:31:32;;;;;;;4.83;2.10;;;16.90;99.90;;;;;;5002633;28;20221;-91
2022/07/30 00:33:58;;;;;;;7.27;2.97;;;16.80;99.90;;;;;;4999373;28;20895;-89
2022/07/30 00:36:25;;;;;;;7.33;2.57;;;16.80;99.90;;;;;;5020521;28;20307;-91
2022/07/30 00:38:52;;;;;;;4.70;2.40;;;16.80;99.90;;;;;;5006953;28;20237;-91
2022/07/30 00:41:19;;;;;;;5.40;2.20;;;16.80;99.90;;;;;;5020248;28;20233;-89
2022/07/30 00:43:47;;;;;;;4.90;2.40;;;16.80;99.90;;;;;;4999983;28;20232;-91
2022/07/30 00:46:14;;;;;;;4.87;2.50;;;16.70;99.90;;;;;;5005675;28;20229;-91
2022/07/30 00:48:41;;;;;;;8.53;2.50;;;16.70;99.90;;;;;;5021711;28;20793;-90
2022/07/30 00:51:08;;;;;;;4.97;2.40;;;16.70;99.90;;;;;;5000831;28;20256;-91
2022/07/30 00:53:35;;;;;;;3.70;2.40;;;16.70;99.90;;;;;;5019290;28;20814;-91
2022/07/30 00:56:04;;;;;;;4.70;2.47;;;16.60;99.90;;;;;;5018135;28;20236;-90
2022/07/30 00:58:31;;;;;;;5.47;2.53;;;16.60;99.90;;;;;;5019758;28;20248;-90
2022/07/30 01:00:59;;;;;;;3.97;2.13;;;16.60;99.90;;;;;;5003345;28;20247;-91
2022/07/30 01:03:25;;;;;;;4.43;2.50;;;16.60;99.90;;;;;;4997828;28;20233;-91
2022/07/30 01:05:52;;;;;;;4.77;2.30;;;16.50;99.90;;;;;;5003312;28;20699;-91
2022/07/30 01:08:19;;;;;;;4.50;2.37;;;16.60;99.90;;;;;;5000679;28;20243;-91
2022/07/30 01:10:46;;;;;;;5.93;2.80;;;16.60;99.90;;;;;;5002825;28;20235;-89
2022/07/30 01:13:13;;;;;;;5.77;2.30;;;16.50;99.90;;;;;;4996997;28;20656;-91
2022/07/30 01:15:40;;;;;;;3.53;2.30;;;16.50;99.90;;;;;;5007835;28;20315;-90
2022/07/30 01:18:12;;;;;;;4.63;2.20;;;16.50;99.90;;;;;;5016862;28;20307;-89
2022/07/30 01:20:44;;;;;;;6.03;2.60;;;16.50;99.90;;;;;;5007958;28;20388;-90
2022/07/30 01:23:18;;;;;;;5.73;2.63;;;16.40;99.90;;;;;;5003614;28;20318;-91
2022/07/30 01:25:54;;;;;;;3.43;2.23;;;16.40;99.90;;;;;;5000875;28;20319;-89
2022/07/30 01:28:25;;;;;;;3.53;2.37;;;16.40;99.90;;;;;;5000625;28;20235;-92
2022/07/30 01:30:54;;;;;;;4.67;2.73;;;16.40;99.90;;;;;;5005873;28;20232;-91
2022/07/30 01:33:23;;;;;;;3.77;2.40;;;16.40;99.90;;;;;;4997600;28;20239;-91
2022/07/30 01:35:52;;;;;;;5.83;2.87;;;16.50;99.90;;;;;;5024321;28;20237;-90
2022/07/30 01:38:22;;;;;;;5.70;2.47;;;16.40;99.90;;;;;;5021925;28;20232;-92
2022/07/30 01:40:52;;;;;;;4.57;2.90;;;16.40;99.90;;;;;;5013152;28;20223;-91
2022/07/30 01:43:20;;;;;;;5.73;2.83;;;16.40;99.90;;;;;;5017809;28;21316;-90
2022/07/30 01:45:49;;;;;;;3.93;2.40;;;16.30;99.90;;;;;;5023420;28;20217;-90
2022/07/30 01:48:20;;;;;;;6.07;2.47;;;16.30;99.90;;;;;;5018966;28;20859;-91
2022/07/30 01:50:51;;;;;;;6.20;2.70;;;16.30;99.90;;;;;;5007458;28;20231;-90
2022/07/30 01:53:23;;;;;;;3.53;2.40;;;16.20;99.90;;;;;;5000947;28;20669;-89
2022/07/30 01:55:54;;;;;;;7.97;2.70;;;16.20;99.90;;;;;;5008286;28;20605;-91
2022/07/30 01:58:24;;;;;;;6.53;2.63;;;16.20;99.90;;;;;;5020444;28;20209;-91
2022/07/30 02:00:57;;;;;;;3.83;2.70;;;16.20;99.90;;;;;;5003984;28;20300;-91
2022/07/30 02:03:24;;;;;;;5.23;2.80;;;16.10;99.90;;;;;;5000914;28;20236;-90
2022/07/30 02:05:55;;;;;;;4.00;2.87;;;16.10;99.90;;;;;;5006570;28;20245;-90
2022/07/30 02:08:32;;;;;;;5.10;2.60;;;16.10;99.90;;;;;;5014493;28;20245;-92
2022/07/30 02:11:06;;;;;;;4.47;2.70;;;16.00;99.90;;;;;;5007836;28;20506;-90
2022/07/30 02:13:37;;;;;;;6.20;3.20;;;16.00;99.90;;;;;;5006174;28;20781;-91
2022/07/30 02:16:14;;;;;;;5.63;3.20;;;16.00;99.90;;;;;;5002100;28;20702;-90
2022/07/30 02:18:50;;;;;;;5.50;2.90;;;15.90;99.90;;;;;;4998284;28;20252;-89
2022/07/30 02:21:20;;;;;;;5.13;3.07;;;15.90;99.90;;;;;;4997547;28;20232;-91
2022/07/30 02:23:48;;;;;;;6.03;2.80;;;15.80;99.90;;;;;;5004062;28;20261;-92
2022/07/30 02:26:20;;;;;;;5.20;3.27;;;15.80;99.90;;;;;;5006248;28;20304;-92
2022/07/30 02:28:51;;;;;;;5.70;2.97;;;15.80;99.90;;;;;;5009943;28;20219;-91
2022/07/30 02:31:22;;;;;;;6.87;3.07;;;15.80;99.90;;;;;;5025433;28;20734;-90
2022/07/30 02:33:52;;;;;;;6.27;2.70;;;15.80;99.90;;;;;;5014518;28;20224;-92
2022/07/30 02:36:20;;;;;;;6.70;3.03;;;15.70;99.90;;;;;;5009533;28;20760;-91
2022/07/30 02:38:49;;;;;;;4.07;2.80;;;15.70;99.90;;;;;;5022772;28;20274;-92
2022/07/30 02:41:20;;;;;;;4.70;3.00;;;15.70;99.90;;;;;;5007980;28;20220;-90
2022/07/30 02:43:49;;;;;;;5.53;2.90;;;15.80;99.90;;;;;;5021632;28;20228;-92
2022/07/30 02:46:19;;;;;;;5.50;3.00;;;15.80;99.90;;;;;;5003879;28;20296;-91
2022/07/30 02:49:15;;;;;;;4.60;2.67;;;15.80;99.90;;;;;;5002065;28;20312;-91
2022/07/30 02:51:43;;;;;;;9.50;3.30;;;15.80;99.90;;;;;;5007252;28;20251;-91
2022/07/30 02:54:12;;;;;;;4.87;3.03;;;15.80;99.90;;;;;;5005240;28;20604;-88
2022/07/30 02:56:41;;;;;;;4.00;2.57;;;15.80;99.90;;;;;;5010468;28;20229;-91
2022/07/30 02:59:09;;;;;;;6.37;3.07;;;15.80;99.90;;;;;;5020006;28;20237;-91
2022/07/30 03:01:37;;;;;;;4.63;2.83;;;15.90;99.90;;;;;;5002878;28;20722;-91
2022/07/30 03:04:05;;;;;;;4.80;2.90;;;15.90;99.90;;;;;;5008921;28;20220;-90
2022/07/30 03:06:34;;;;;;;4.70;2.70;;;15.90;99.90;;;;;;5000239;28;20633;-90
2022/07/30 03:09:02;;;;;;;6.63;3.17;;;15.90;99.90;;;;;;5024078;28;20312;-90
2022/07/30 03:11:30;;;;;;;5.53;3.03;;;16.00;99.90;;;;;;5011901;28;20351;-91
2022/07/30 03:13:58;;;;;;;4.57;2.60;;;16.00;99.90;;;;;;5009488;28;20264;-91
2022/07/30 03:16:26;;;;;;;5.23;2.53;;;16.00;99.90;;;;;;5009522;28;20231;-90
2022/07/30 03:18:54;;;;;;;4.33;2.50;;;16.10;99.90;;;;;;5004308;28;20259;-91
2022/07/30 03:21:26;;;;;;;3.60;2.60;;;16.00;99.90;;;;;;5007450;28;20244;-90
2022/07/30 03:23:56;;;;;;;6.40;3.17;;;16.10;99.90;;;;;;5026984;28;20261;-92
2022/07/30 03:26:25;;;;;;;5.43;2.70;;;16.00;99.90;;;;;;5008535;28;20221;-91
2022/07/30 03:28:52;;;;;;;3.77;2.43;;;16.10;99.90;;;;;;5009935;28;20307;-90
2022/07/30 03:31:22;;;;;;;6.17;2.77;;;16.00;99.90;;;;;;5020585;28;20319;-91
2022/07/30 03:33:50;;;;;;;4.47;2.93;;;16.10;99.90;;;;;;5026069;28;20233;-91
2022/07/30 03:36:18;;;;;;;6.47;2.80;;;16.10;99.90;;;;;;5007073;28;20275;-91
2022/07/30 03:38:47;;;;;;;5.40;3.00;;;16.00;99.90;;;;;;5009697;28;20220;-91
2022/07/30 03:41:15;;;;;;;6.70;3.00;;;16.00;99.90;;;;;;5011955;28;20757;-90
2022/07/30 03:43:45;;;;;;;7.33;2.87;;;16.00;99.90;;;;;;5005440;28;20586;-91
2022/07/30 03:46:13;;;;;;;4.90;2.80;;;16.10;99.90;;;;;;5008859;28;20217;-90
2022/07/30 03:48:46;;;;;;;5.80;3.23;;;16.10;99.90;;;;;;5010359;28;20221;-91
2022/07/30 03:51:13;;;;;;;6.27;2.90;;;16.00;99.90;;;;;;5009872;28;20787;-91
2022/07/30 03:53:42;;;;;;;3.70;2.53;;;16.00;99.90;;;;;;5010920;28;20224;-89
2022/07/30 03:56:35;;;;;;;4.47;2.60;;;16.00;99.90;;;;;;5005289;28;20223;-91
2022/07/30 03:59:14;;;;;;;5.90;3.07;;;16.00;99.90;;;;;;5007000;28;20224;-90
2022/07/30 04:01:41;;;;;;;5.10;3.10;;;16.00;99.90;;;;;;5000833;28;20239;-90
2022/07/30 04:04:47;;;;;;;5.60;2.93;;;16.00;99.90;;;;;;5008271;28;20228;-90
2022/07/30 04:07:14;;;;;;;4.43;2.93;;;15.90;99.90;;;;;;5003304;28;20227;-91
2022/07/30 04:09:41;;;;;;;8.20;2.80;;;15.90;99.90;;;;;;5007084;28;20229;-90
2022/07/30 04:12:25;;;;;;;5.03;3.03;;;15.90;99.90;;;;;;5022042;28;20224;-91
2022/07/30 04:14:53;;;;;;;4.20;2.57;;;15.90;99.90;;;;;;5021169;28;20818;-91
2022/07/30 04:17:24;;;;;;;5.87;3.03;;;15.80;99.90;;;;;;5023431;28;20244;-91
2022/07/30 04:19:56;;;;;;;7.27;2.87;;;15.80;99.90;;;;;;5008911;28;20279;-90
2022/07/30 04:22:28;;;;;;;5.43;2.67;;;15.80;99.90;;;;;;5003787;28;20232;-91
2022/07/30 04:24:56;;;;;;;4.70;2.40;;;15.80;99.90;;;;;;5022239;28;20224;-90
2022/07/30 04:27:24;;;;;;;5.90;2.83;;;15.80;99.90;;;;;;5023837;28;20315;-90
2022/07/30 04:29:51;;;;;;;4.90;2.53;;;15.70;99.90;;;;;;5010281;28;20224;-90
2022/07/30 04:32:19;;;;;;;5.60;2.90;;;15.70;99.90;;;;;;5017670;28;20789;-90
2022/07/30 04:35:01;;;;;;;3.47;2.60;;;15.80;99.90;;;;;;5020286;28;20262;-90
2022/07/30 04:37:54;;;;;;;6.80;2.93;;;15.80;99.90;;;;;;5015899;28;20227;-89
2022/07/30 04:40:21;;;;;;;6.80;2.73;;;15.80;99.90;;;;;;5006355;28;20314;-90
2022/07/30 04:42:48;;;;;;;5.00;2.77;;;15.80;99.90;;;;;;5010082;28;20223;-89
2022/07/30 04:45:15;;;;;;;5.87;2.73;;;15.80;99.90;;;;;;5004724;28;20273;-90
2022/07/30 04:47:57;;;;;;;5.77;2.70;;;15.80;99.90;;;;;;5005811;28;20229;-90
2022/07/30 04:50:57;;;;;;;5.73;2.87;;;15.80;99.90;;;;;;5006443;28;20290;-90
2022/07/30 04:53:24;;;;;;;5.10;2.90;;;15.80;99.90;;;;;;5007220;28;20236;-91
2022/07/30 04:55:59;;;;;;;4.40;2.53;;;15.80;99.90;;;;;;5005876;28;20233;-91
2022/07/30 04:58:29;;;;;;;5.30;2.87;;;15.80;99.90;;;;;;5002956;28;20262;-91
2022/07/30 05:01:00;;;;;;;7.07;2.87;;;15.80;99.90;;;;;;5003093;28;20230;-91
2022/07/30 05:03:33;;;;;;;5.83;2.67;;;15.80;99.90;;;;;;5001546;28;20260;-90
2022/07/30 05:06:03;;;;;;;4.57;2.90;;;15.80;99.90;;;;;;5004108;28;20308;-91
2022/07/30 05:08:33;;;;;;;4.93;2.63;;;15.80;99.90;;;;;;5019316;28;20222;-91
2022/07/30 05:11:04;;;;;;;5.43;3.03;;;15.90;99.90;;;;;;5003902;28;20228;-91
2022/07/30 05:13:31;;;;;;;5.17;2.70;;;15.90;99.90;;;;;;5003234;28;20243;-91
2022/07/30 05:15:58;;;;;;;6.30;2.90;;;15.90;99.90;;;;;;5021116;28;20231;-91
2022/07/30 05:18:25;;;;;;;4.70;2.87;;;15.90;99.90;;;;;;5001497;28;20225;-91
2022/07/30 05:20:52;;;;;;;4.80;2.73;;;16.00;99.90;;;;;;5003594;28;20277;-91
2022/07/30 05:23:22;;;;;;;5.37;2.20;;;16.00;99.90;;;;;;4995396;28;20352;-90
2022/07/30 05:26:09;;;;;;;3.77;2.77;;;16.00;99.90;;;;;;5003418;28;20745;-91
2022/07/30 05:28:40;;;;;;;2.53;2.17;;;16.00;99.90;;;;;;5014201;28;20233;-90
2022/07/30 05:31:11;;;;;;;3.23;2.60;;;16.10;99.90;;;;;;5003394;28;20317;-88
2022/07/30 05:33:38;;;;;;;4.53;2.63;;;16.10;99.90;;;;;;5001540;28;20286;-91
2022/07/30 05:36:06;;;;;;;7.50;2.60;;;16.20;99.90;;;;;;4999301;28;20235;-91
2022/07/30 05:38:38;;;;;;;3.73;2.73;;;16.20;99.90;;;;;;5001932;28;20228;-91
2022/07/30 05:41:29;;;;;;;5.70;2.70;;;16.30;99.90;;;;;;5002165;28;20225;-91
2022/07/30 05:44:15;;;;;;;3.87;2.80;;;16.40;99.90;;;;;;5005981;28;20232;-91
2022/07/30 05:46:42;;;;;;;6.07;2.50;;;16.50;99.90;;;;;;5000037;28;20216;-91
2022/07/30 05:49:09;;;;;;;5.53;2.40;;;16.60;99.90;;;;;;4996313;28;20326;-88
2022/07/30 05:51:36;;;;;;;4.00;2.63;;;16.70;99.90;;;;;;4997495;28;20712;-91
2022/07/30 05:54:05;;;;;;;3.53;2.20;;;16.80;99.90;;;;;;5000724;28;20648;-91
2022/07/30 05:56:53;;;;;;;6.63;2.63;;;16.90;99.90;;;;;;5003281;28;20349;-90
2022/07/30 05:59:29;;;;;;;5.97;2.63;;;17.00;99.90;;;;;;5003105;28;20224;-90
2022/07/30 06:02:02;;;;;;;4.03;2.20;;;17.10;99.90;;;;;;5000074;28;20599;-90
2022/07/30 06:04:41;;;;;;;5.50;2.60;;;17.30;99.90;;;;;;5001953;28;20224;-90
2022/07/30 06:07:08;;;;;;;3.63;2.00;;;17.40;99.90;;;;;;5001506;28;20831;-91
2022/07/30 06:09:36;;;;;;;5.47;2.50;;;17.50;99.90;;;;;;4996030;28;20227;-92
2022/07/30 06:12:03;;;;;;;5.43;2.27;;;17.60;99.90;;;;;;5001703;28;20233;-91
2022/07/30 06:14:31;;;;;;;4.72;2.60;;;17.70;99.90;;;;;;5003906;28;20218;-91
2022/07/30 06:16:58;;;;;;;6.93;2.30;;;17.90;99.90;;;;;;5002328;28;20228;-92
2022/07/30 06:19:28;;;;;;;6.13;2.50;;;18.10;99.90;;;;;;5002037;28;20697;-92
2022/07/30 06:21:55;;;;;;;4.73;2.23;;;18.30;99.90;;;;;;5020346;28;20251;-91
2022/07/30 06:24:24;;;;;;;3.87;2.27;;;18.50;99.90;;;;;;5004974;28;20243;-91
2022/07/30 06:27:01;;;;;;;2.90;2.30;;;18.60;99.90;;;;;;5009222;28;20983;-91
2022/07/30 06:29:27;;;;;;;7.03;2.55;;;18.70;99.90;;;;;;5002769;28;20300;-91
2022/07/30 06:31:54;;;;;;;3.97;2.30;;;18.80;99.90;;;;;;5003144;28;20301;-91
2022/07/30 06:34:21;;;;;;;7.32;2.30;;;18.90;99.90;;;;;;5007142;28;20333;-91
2022/07/30 06:36:48;;;;;;;3.42;2.22;;;19.00;99.90;;;;;;4996486;28;20242;-91
2022/07/30 06:39:18;;;;;;;2.97;2.25;;;19.10;99.90;;;;;;5003046;28;20707;-91
2022/07/30 06:41:57;;;;;;;11.27;3.10;;;19.20;99.90;;;;;;5004355;28;20233;-89
2022/07/30 06:44:29;;;;;;;4.97;2.50;;;19.40;99.90;;;;;;5013940;28;20233;-91
2022/07/30 06:47:25;;;;;;;3.28;2.30;;;19.50;99.90;;;;;;5014182;28;20218;-92
2022/07/30 06:49:52;;;;;;;5.05;2.53;;;19.70;99.90;;;;;;5001465;28;20253;-92
2022/07/30 06:52:19;;;;;;;3.97;2.10;;;19.80;99.90;;;;;;5014060;28;20221;-92
2022/07/30 06:54:50;;;;;;;4.75;2.30;;;20.00;99.90;;;;;;5007892;28;20214;-92
2022/07/30 06:57:28;;;;;;;4.47;1.83;;;20.20;99.90;;;;;;5007485;28;20248;-92
2022/07/30 06:59:56;;;;;;;3.03;2.10;;;20.40;99.90;;;;;;5006429;28;20241;-91
2022/07/30 07:02:33;;;;;;;7.88;2.00;;;20.70;99.90;;;;;;5004451;28;20225;-92
2022/07/30 07:05:12;;;;;;;2.53;1.70;;;20.90;99.90;;;;;;5022114;28;20235;-91
2022/07/30 07:07:41;;;;;;;6.38;2.20;;;21.20;99.90;;;;;;5005850;28;20312;-92
2022/07/30 07:10:10;;;;;;;5.25;1.90;;;21.50;99.90;;;;;;5005581;28;20226;-92
2022/07/30 07:12:50;;;;;;;2.95;2.08;;;21.70;99.80;;;;;;5028433;28;20221;-91
2022/07/30 07:15:21;;;;;;;2.58;1.80;;;21.90;99.70;;;;;;5006378;28;20232;-93
2022/07/30 07:17:49;;;;;;;2.70;2.22;;;22.20;98.80;;;;;;5010456;28;20293;-91
2022/07/30 07:20:32;;;;;;;3.08;1.70;;;22.40;98.30;;;;;;5021892;28;20222;-92
2022/07/30 07:23:04;;;;;;;3.25;1.70;;;22.60;98.50;;;;;;5002036;28;20233;-91
2022/07/30 07:25:31;;;;;;;3.40;1.67;;;22.80;98.00;;;;;;5007980;28;20217;-91
2022/07/30 07:27:58;;;;;;;4.60;1.80;;;23.00;96.70;;;;;;5019401;28;20218;-91
2022/07/30 07:30:26;;;;;;;4.32;2.10;;;23.20;95.80;;;;;;5023763;28;20241;-92
2022/07/30 07:32:53;;;;;;;3.08;1.63;;;23.40;95.80;;;;;;5007253;28;20309;-91
2022/07/30 07:35:20;;;;;;;4.00;1.90;;;23.50;95.20;;;;;;5004043;28;20296;-91
2022/07/30 07:37:49;;;;;;;3.45;2.00;;;23.50;94.70;;;;;;5009548;28;20229;-90
2022/07/30 07:40:22;;;;;;;2.70;2.10;;;23.60;94.80;;;;;;5008310;28;20407;-91
2022/07/30 07:42:50;;;;;;;3.70;2.10;;;23.60;94.40;;;;;;5006083;28;20249;-91
2022/07/30 07:45:19;;;;;;;3.95;2.15;;;23.50;94.10;;;;;;5006711;28;20292;-92
2022/07/30 07:47:56;;;;;;;4.80;2.20;;;23.50;94.50;;;;;;5008189;28;20240;-91
2022/07/30 07:50:55;;;;;;;3.13;1.90;;;23.60;94.10;;;;;;4996348;28;20221;-91
2022/07/30 07:53:25;;;;;;;4.40;2.22;;;23.70;94.90;;;;;;5006576;28;20225;-91
2022/07/30 07:55:52;;;;;;;5.40;1.95;;;23.90;94.00;;;;;;5003711;28;20229;-91
2022/07/30 07:58:21;;;;;;;4.35;2.05;;;24.00;94.40;;;;;;5005572;28;20281;-92
2022/07/30 08:00:48;;;;;;;4.63;2.13;;;24.10;94.10;;;;;;5006799;28;20281;-91
2022/07/30 08:03:16;;;;;;;4.38;2.05;;;24.20;94.00;;;;;;5024543;28;20225;-92
2022/07/30 08:05:43;;;;;;;3.22;1.88;;;24.30;93.30;;;;;;5027225;28;20303;-92
2022/07/30 08:08:42;;;;;;;5.57;1.92;;;24.40;93.40;;;;;;5006780;28;20256;-91
2022/07/30 08:11:30;;;;;;;4.78;2.10;;;24.40;93.30;;;;;;5003160;28;20723;-92
2022/07/30 08:14:15;;;;;;;3.83;2.08;;;24.50;93.10;;;;;;5008697;28;20231;-92
2022/07/30 08:17:01;;;;;;;5.72;2.15;;;24.70;93.00;;;;;;5006829;28;20313;-92
2022/07/30 08:20:00;;;;;;;4.15;2.00;;;24.70;92.60;;;;;;5000326;28;20230;-91
2022/07/30 08:22:27;;;;;;;4.53;1.90;;;24.80;91.90;;;;;;5001613;28;20228;-92
2022/07/30 08:24:55;;;;;;;4.03;1.83;;;24.80;92.10;;;;;;5020876;28;20711;-92
2022/07/30 08:27:22;;;;;;;3.05;2.10;;;24.80;92.00;;;;;;5003308;28;20229;-91
2022/07/30 08:29:48;;;;;;;5.15;2.42;;;24.80;91.70;;;;;;5022868;28;21055;-92
2022/07/30 08:32:15;;;;;;;2.95;1.95;;;24.80;92.10;;;;;;5004869;28;20257;-91
2022/07/30 08:34:42;;;;;;;5.10;2.17;;;24.70;91.70;;;;;;5009617;28;20225;-91
2022/07/30 08:37:10;;;;;;;3.53;2.42;;;24.70;91.00;;;;;;5023054;28;20614;-90
2022/07/30 08:39:37;;;;;;;2.90;2.13;;;24.70;90.80;;;;;;5004198;28;20239;-89
2022/07/30 08:42:05;;;;;;;4.57;2.33;;;24.70;90.90;;;;;;4998265;28;20229;-90
2022/07/30 08:44:33;;;;;;;3.28;2.05;;;24.70;91.20;;;;;;5003801;28;20226;-90
2022/07/30 08:47:02;;;;;;;5.40;2.42;;;24.70;91.00;;;;;;5030831;28;20289;-93
2022/07/30 08:50:05;;;;;;;4.63;2.35;;;24.80;91.20;;;;;;5013301;28;20245;-92
2022/07/30 08:52:37;;;;;;;4.25;2.20;;;25.00;91.00;;;;;;5038616;28;20229;-91
2022/07/30 08:55:06;;;;;;;4.22;2.13;;;25.20;90.70;;;;;;5014908;28;20229;-92
2022/07/30 08:57:35;;;;;;;2.42;1.85;;;25.40;90.50;;;;;;5014228;28;20652;-92
2022/07/30 09:00:04;;;;;;;4.82;2.38;;;25.80;90.50;;;;;;5026643;28;20217;-92
2022/07/30 09:02:31;;;;;;;3.95;1.88;;;26.20;90.00;;;;;;5030371;28;20655;-92
2022/07/30 09:05:02;;;;;;;6.88;2.40;;;26.60;89.70;;;;;;5013612;28;20225;-92
2022/07/30 09:07:31;;;;;;;3.80;2.17;;;27.10;88.40;;;;;;5011297;28;20229;-91
2022/07/30 09:10:03;;;;;;;4.65;2.30;;;27.50;86.80;;;;;;5019942;28;20237;-91
2022/07/30 09:12:36;;;;;;;4.70;2.00;;;27.80;83.30;;;;;;5011350;28;20226;-94
2022/07/30 09:15:10;;;;;;;4.20;2.30;;;28.00;82.60;;;;;;5023650;28;20655;-91
2022/07/30 09:17:49;;;;;;;5.53;2.20;;;28.20;81.90;;;;;;5019119;28;20264;-93
2022/07/30 09:20:17;;;;;;;7.63;2.40;;;28.40;81.00;;;;;;5019356;28;20337;-91
2022/07/30 09:22:46;;;;;;;4.10;2.25;;;28.50;81.80;;;;;;5028284;28;20229;-92
2022/07/30 09:25:38;;;;;;;5.07;2.33;;;28.70;81.00;;;;;;5009888;28;20232;-93
2022/07/30 09:28:30;;;;;;;6.93;2.70;;;29.00;79.30;;;;;;5005249;28;20267;-93
2022/07/30 09:31:21;;;;;;;3.03;2.00;;;29.40;78.90;;;;;;4994844;28;20305;-91
2022/07/30 09:34:28;;;;;;;4.78;2.40;;;29.70;77.60;;;;;;4960828;28;20242;-92
2022/07/30 09:37:03;;;;;;;5.05;2.15;;;30.20;75.90;;;;;;4963700;28;20704;-91
2022/07/30 09:39:48;;;;;;;3.28;2.28;;;30.40;74.70;;;;;;4991742;28;20599;-93
2022/07/30 09:42:26;;;;;;;3.38;2.20;;;30.70;74.80;;;;;;5003965;28;20315;-91
2022/07/30 09:45:06;;;;;;;8.63;2.72;;;31.00;73.00;;;;;;5002126;28;20233;-92
2022/07/30 09:47:36;;;;;;;3.58;2.00;;;31.30;72.20;;;;;;5010978;28;20221;-91
2022/07/30 09:50:07;;;;;;;3.38;2.17;;;31.70;71.40;;;;;;4997686;28;20222;-92
2022/07/30 09:52:34;;;;;;;5.60;2.13;;;32.00;68.80;;;;;;4993418;28;20277;-91
2022/07/30 09:55:01;;;;;;;5.60;2.42;;;32.40;68.80;;;;;;4999933;28;20379;-92
2022/07/30 09:57:31;;;;;;;4.25;2.20;;;32.60;68.10;;;;;;5013672;28;20893;-90
2022/07/30 10:00:25;;;;;;;4.88;2.70;;;32.90;66.90;;;;;;4996624;28;20268;-92
2022/07/30 10:03:19;;;;;;;6.00;2.72;;;33.20;66.10;;;;;;5004241;28;20220;-93
2022/07/30 10:06:33;;;;;;;4.43;2.53;;;33.40;63.90;;;;;;4960704;28;20712;-92
2022/07/30 10:09:01;;;;;;;4.55;2.58;;;33.70;64.90;;;;;;4994344;28;20224;-93
2022/07/30 10:11:29;;;;;;;3.60;2.70;;;33.90;63.30;;;;;;5006864;28;20224;-91
2022/07/30 10:14:00;;;;;;;4.70;2.90;;;34.10;61.80;;;;;;5026031;28;20228;-93
2022/07/30 10:16:29;;;;;;;4.03;2.42;;;34.20;60.40;;;;;;5009563;28;20216;-92
2022/07/30 10:18:58;;;;;;;4.18;2.60;;;34.30;59.60;;;;;;5021203;28;20610;-92
2022/07/30 10:21:44;;;;;;;8.15;2.90;;;34.00;59.00;;;;;;5022674;28;20223;-91
2022/07/30 10:24:18;;;;;;;4.32;2.53;;;33.90;58.80;;;;;;5022669;28;20682;-92
2022/07/30 10:27:22;;;;;;;5.88;2.70;;;33.70;58.60;;;;;;5025065;28;20225;-92
2022/07/30 10:29:59;;;;;;;4.72;2.70;;;33.60;59.60;;;;;;5006404;28;20228;-93
2022/07/30 10:32:26;;;;;;;6.70;2.78;;;33.60;58.80;;;;;;5007636;28;20244;-92
2022/07/30 10:34:54;;;;;;;4.15;2.63;;;33.80;58.60;;;;;;5006462;28;20296;-93
2022/07/30 10:37:22;;;;;;;6.03;2.45;;;33.90;58.70;;;;;;5003283;28;20252;-91
2022/07/30 10:39:56;;;;;;;6.45;2.75;;;34.00;58.30;;;;;;5005548;28;22138;-91
2022/07/30 10:42:49;;;;;;;2.60;2.20;;;34.20;57.20;;;;;;5005976;28;20783;-90
2022/07/30 10:45:21;;;;;;;5.75;2.70;;;34.20;57.10;;;;;;5017376;28;20300;-90
2022/07/30 10:47:49;;;;;;;3.63;2.58;;;34.10;56.10;;;;;;5006700;28;20225;-89
2022/07/30 10:50:18;;;;;;;3.33;2.40;;;33.90;56.00;;;;;;5026690;28;20264;-91
2022/07/30 10:52:50;;;;;;;5.45;2.40;;;33.60;56.30;;;;;;5011450;28;20224;-88
2022/07/30 10:55:21;;;;;;;3.28;2.55;;;33.30;56.80;;;;;;5009675;28;20213;-90
2022/07/30 10:58:02;;;;;;;3.15;2.25;;;32.90;56.20;;;;;;5027775;28;20229;-89
2022/07/30 11:00:33;;;;;;;3.50;2.40;;;32.40;56.80;;;;;;5026590;28;20365;-91
2022/07/30 11:03:27;;;;;;;7.03;2.60;;;32.00;56.90;;;;;;5019430;28;20252;-90
2022/07/30 11:06:25;;;;;;;4.85;2.42;;;31.50;58.20;;;;;;5000964;28;20304;-90
2022/07/30 11:08:52;;;;;;;4.20;2.30;;;31.10;58.60;;;;;;5009586;28;20244;-91
2022/07/30 11:11:44;;;;;;;4.03;2.47;;;30.70;59.10;;;;;;5024415;28;20228;-90
2022/07/30 11:14:11;;;;;;;4.50;2.35;;;30.30;59.70;;;;;;5018615;28;20578;-91
2022/07/30 11:17:01;;;;;;;4.13;2.40;;;29.90;59.60;;;;;;5029450;28;20221;-89
2022/07/30 11:19:28;;;;;;;3.45;2.45;;;29.40;60.60;;;;;;5022901;28;20252;-91
2022/07/30 11:22:24;;;;;;;3.47;2.50;;;28.80;60.60;;;;;;5021256;28;20241;-92
2022/07/30 11:24:52;;;;;;;3.70;2.42;;;28.40;62.70;;;;;;5020871;28;20296;-90
2022/07/30 11:27:39;;;;;;;7.15;2.72;;;28.10;63.10;;;;;;5038632;28;20217;-90
2022/07/30 11:30:37;;;;;;;3.97;2.80;;;27.70;70.50;;;;;;5019952;28;20252;-91
2022/07/30 11:33:26;;;;;;;4.20;2.50;;;27.30;73.90;;;;;;5019896;28;20232;-92
2022/07/30 11:36:08;;;;;;;6.03;2.75;;;27.10;75.20;;;;;;5016148;28;20225;-91
2022/07/30 11:38:58;;;;;;;5.07;2.83;;;26.70;77.80;;;;;;5032272;28;20851;-90
2022/07/30 11:41:26;;;;;;;9.50;3.60;;;26.30;78.10;;;;;;5027752;28;20248;-92
2022/07/30 11:44:28;;;;;;;6.38;3.13;;;26.00;78.90;;;;;;5029778;28;20259;-92
2022/07/30 11:46:57;;;;;;;5.03;3.00;;;25.60;80.20;;;;;;5015318;28;20316;-93
2022/07/30 11:49:24;;;;;;;5.93;3.30;;;25.10;81.40;;;;;;5029813;28;20244;-93
2022/07/30 11:51:51;;;;;;;4.65;3.33;;;24.70;84.10;;;;;;5037894;28;20300;-92
2022/07/30 11:54:19;;;;;;;5.43;3.38;;;24.20;85.90;;;;;;5040832;28;20272;-91
2022/07/30 11:56:53;;;;;;;9.50;4.53;;;23.80;88.70;;;;;;5035582;28;20750;-92
2022/07/30 11:59:20;;;;;;;31.70;9.60;;;23.40;92.30;;;;;;5043207;28;20232;-93
2022/07/30 12:01:51;;;;;;;7.80;5.35;;;23.10;93.70;;;;;;5045362;28;20207;-92
2022/07/30 12:04:20;;;;;;;6.72;5.57;;;22.80;99.80;;;;;;5045116;28;20225;-91
2022/07/30 12:06:48;;;;;;;7.30;4.43;;;22.50;99.90;;;;;;5028545;28;20225;-92
2022/07/30 12:09:22;;;;;;;7.28;4.63;;;22.30;99.90;;;;;;5021075;28;20225;-92
2022/07/30 12:11:48;;;;;;;4.75;4.18;;;21.90;99.90;;;;;;5017827;28;20221;-92
2022/07/30 12:14:15;;;;;;;6.47;4.55;;;21.70;99.90;;;;;;5018504;28;20251;-93
2022/07/30 12:16:49;;;;;;;5.90;5.15;;;21.50;99.90;;;;;;5022399;28;20229;-91
2022/07/30 12:19:16;;;;;;;5.43;3.90;;;21.40;99.90;;;;;;5033016;28;20216;-92
2022/07/30 12:21:45;;;;;;;6.47;4.80;;;21.30;99.90;;;;;;5032449;28;20284;-92
2022/07/30 12:24:12;;;;;;;5.75;4.78;;;21.20;99.90;;;;;;5017375;28;20224;-91
2022/07/30 12:26:39;;;;;;;8.10;5.15;;;21.20;99.90;;;;;;5015392;28;20239;-91
2022/07/30 12:29:08;;;;;;;7.55;5.10;;;21.20;99.90;;;;;;5030109;28;20227;-92
2022/07/30 12:31:36;;;;;;;6.88;5.18;;;21.30;99.90;;;;;;5027925;28;20224;-92
2022/07/30 12:34:02;;;;;;;5.70;4.60;;;21.40;99.90;;;;;;5013982;28;20307;-91
2022/07/30 12:36:31;;;;;;;7.53;4.93;;;21.60;99.90;;;;;;5015694;28;20248;-91
2022/07/30 12:39:01;;;;;;;8.20;5.55;;;21.80;99.90;;;;;;5031794;28;20248;-92
2022/07/30 12:41:42;;;;;;;5.90;4.47;;;22.10;99.90;;;;;;5018944;28;20316;-90
2022/07/30 12:44:09;;;;;;;6.47;4.38;;;22.40;99.90;;;;;;5013258;28;20240;-91
2022/07/30 12:46:38;;;;;;;6.03;4.53;;;22.80;99.90;;;;;;5031885;28;20227;-91
2022/07/30 12:49:07;;;;;;;6.78;4.10;;;23.20;99.90;;;;;;5032011;28;20491;-91
2022/07/30 12:51:37;;;;;;;5.20;3.55;;;23.50;99.90;;;;;;5011909;28;20647;-91
2022/07/30 12:54:17;;;;;;;5.72;3.95;;;23.80;99.90;;;;;;5010872;28;20236;-90
2022/07/30 12:56:56;;;;;;;6.20;4.20;;;24.10;99.90;;;;;;5011480;28;20875;-91
2022/07/30 12:59:24;;;;;;;4.75;3.28;;;24.30;99.90;;;;;;5034588;28;25428;-91
2022/07/30 13:01:52;;;;;;;5.57;3.17;;;24.60;99.90;;;;;;5031205;28;20217;-91
2022/07/30 13:04:21;;;;;;;5.15;3.28;;;24.90;99.90;;;;;;5031447;28;20220;-92
2022/07/30 13:07:04;;;;;;;7.05;3.67;;;25.20;99.70;;;;;;5019322;28;20244;-91
2022/07/30 13:09:34;;;;;;;3.70;3.10;;;25.60;98.90;;;;;;5013881;28;20237;-91
2022/07/30 13:12:01;;;;;;;7.25;3.00;;;25.80;99.90;;;;;;5012252;28;20248;-91
2022/07/30 13:14:28;;;;;;;5.38;3.08;;;26.10;98.20;;;;;;5008740;28;20221;-90
2022/07/30 13:16:55;;;;;;;5.35;3.13;;;26.30;98.40;;;;;;5013073;28;20244;-91